createdAt,value
2022-12-04T00:02:17.979Z,19.02
2022-12-04T00:07:19.667Z,17.88
2022-12-04T00:12:21.304Z,16.92
2022-12-04T00:17:22.907Z,17.23
2022-12-04T00:22:24.628Z,16.92
2022-12-04T00:27:26.273Z,16.50
2022-12-04T00:32:27.911Z,17.58
2022-12-04T00:37:29.636Z,17.85
2022-12-04T00:42:31.274Z,17.70
2022-12-04T00:47:32.931Z,16.35
2022-12-04T00:52:34.569Z,16.67
2022-12-04T00:57:36.207Z,17.10
2022-12-04T01:02:37.886Z,17.60
2022-12-04T01:07:39.633Z,17.15
2022-12-04T01:12:41.481Z,17.95
2022-12-04T01:17:43.236Z,18.65
2022-12-04T01:22:45.073Z,18.20
2022-12-04T01:27:46.882Z,18.30
2022-12-04T01:32:48.539Z,19.10
2022-12-04T01:37:50.161Z,18.63
2022-12-04T01:42:51.942Z,18.15
2022-12-04T01:47:56.332Z,19.63
2022-12-04T01:52:59.043Z,17.42
2022-12-04T01:58:02.100Z,18.58
2022-12-04T02:03:03.809Z,17.23
2022-12-04T02:08:05.933Z,17.70
2022-12-04T02:13:15.334Z,17.90
2022-12-04T02:18:47.070Z,17.70
2022-12-04T02:24:07.269Z,18.65
2022-12-04T02:29:38.297Z,19.52
2022-12-04T02:34:39.831Z,18.13
2022-12-04T02:39:56.738Z,19.77
2022-12-04T02:45:03.465Z,18.95
2022-12-04T02:50:08.632Z,18.17
2022-12-04T02:55:17.561Z,18.55
2022-12-04T03:00:20.002Z,16.40
2022-12-04T03:05:27.775Z,19.48
2022-12-04T03:10:42.260Z,19.80
2022-12-04T03:15:48.306Z,18.52
2022-12-04T03:20:53.047Z,19.17
2022-12-04T03:26:11.260Z,17.52
2022-12-04T03:31:15.458Z,18.88
2022-12-04T03:36:34.973Z,19.65
2022-12-04T03:41:52.373Z,19.60
2022-12-04T03:46:56.373Z,19.17
2022-12-04T03:52:05.336Z,19.23
2022-12-04T03:57:15.146Z,20.48
2022-12-04T04:02:20.779Z,19.73
2022-12-04T04:07:41.167Z,19.83
2022-12-04T04:13:08.319Z,21.23
2022-12-04T04:18:28.629Z,20.42
2022-12-04T04:23:52.705Z,19.70
2022-12-04T04:28:54.394Z,21.35
2022-12-04T04:34:14.242Z,20.60
2022-12-04T04:39:20.439Z,20.63
2022-12-04T04:44:41.559Z,21.83
2022-12-04T04:49:43.479Z,22.40
2022-12-04T04:54:46.360Z,20.40
2022-12-04T04:59:47.999Z,21.65
2022-12-04T05:04:49.644Z,19.17
2022-12-04T05:09:51.339Z,20.70
2022-12-04T05:14:52.960Z,20.90
2022-12-04T05:19:55.251Z,22.42
2022-12-04T05:24:57.715Z,21.05
2022-12-04T05:29:59.831Z,23.88
2022-12-04T05:35:05.198Z,22.20
2022-12-04T05:40:11.391Z,23.02
2022-12-04T05:45:13.036Z,22.95
2022-12-04T05:50:14.776Z,19.95
2022-12-04T05:55:16.503Z,21.67
2022-12-04T06:00:18.351Z,21.67
2022-12-04T06:05:20.027Z,20.38
2022-12-04T06:10:21.699Z,21.35
2022-12-04T06:15:24.086Z,21.25
2022-12-04T06:20:25.813Z,21.15
2022-12-04T06:25:27.675Z,21.40
2022-12-04T06:30:30.596Z,23.08
2022-12-04T06:35:32.255Z,24.08
2022-12-04T06:40:33.940Z,22.92
2022-12-04T06:45:35.615Z,22.02
2022-12-04T06:50:37.423Z,23.30
2022-12-04T06:55:39.064Z,23.63
2022-12-04T07:00:40.751Z,22.90
2022-12-04T07:05:42.418Z,23.58
2022-12-04T07:10:44.232Z,22.60
2022-12-04T07:15:45.884Z,23.48
2022-12-04T07:20:47.517Z,23.60
2022-12-04T07:25:49.251Z,24.05
2022-12-04T07:30:50.952Z,23.38
2022-12-04T07:35:57.141Z,22.67
2022-12-04T07:40:59.709Z,24.90
2022-12-04T07:46:22.932Z,23.20
2022-12-04T07:51:29.234Z,23.23
2022-12-04T07:56:31.215Z,21.55
2022-12-04T08:01:33.348Z,22.02
2022-12-04T08:06:35.331Z,21.98
2022-12-04T08:11:37.615Z,20.73
2022-12-04T08:16:39.267Z,24.48
2022-12-04T08:21:41.143Z,25.42
2022-12-04T08:26:43.084Z,22.98
2022-12-04T08:31:44.925Z,25.65
2022-12-04T08:36:48.150Z,22.17
2022-12-04T08:41:55.309Z,24.30
2022-12-04T08:46:58.549Z,22.38
2022-12-04T08:52:00.317Z,23.92
2022-12-04T08:57:01.933Z,22.77
2022-12-04T09:02:03.631Z,19.00
2022-12-04T09:07:05.422Z,25.90
2022-12-04T09:12:07.265Z,24.88
2022-12-04T09:17:10.627Z,24.08
2022-12-04T09:22:12.288Z,24.08
2022-12-04T09:27:15.124Z,23.88
2022-12-04T09:32:16.959Z,25.23
2022-12-04T09:37:18.853Z,25.30
2022-12-04T09:42:45.374Z,24.90
2022-12-04T09:47:49.246Z,24.02
2022-12-04T09:53:03.795Z,24.85
2022-12-04T09:58:09.937Z,23.90
2022-12-04T10:03:17.833Z,24.77
2022-12-04T10:08:29.234Z,23.60
2022-12-04T10:13:39.905Z,24.40
2022-12-04T10:18:59.972Z,24.10
2022-12-04T10:24:16.981Z,24.42
2022-12-04T10:29:22.604Z,22.55
2022-12-04T10:34:27.063Z,24.63
2022-12-04T10:39:37.247Z,21.80
2022-12-04T10:44:39.162Z,20.65
2022-12-04T10:49:41.698Z,23.00
2022-12-04T10:54:48.901Z,22.70
2022-12-04T10:59:53.815Z,23.63
2022-12-04T11:05:00.234Z,22.48
2022-12-04T11:10:07.271Z,23.27
2022-12-04T11:25:30.400Z,21.58
2022-12-04T11:30:36.333Z,22.05
2022-12-04T11:35:38.394Z,21.05
2022-12-04T11:40:40.430Z,20.80
2022-12-04T11:45:42.718Z,23.63
2022-12-04T11:50:59.591Z,20.45
2022-12-04T11:56:13.373Z,22.15
2022-12-04T12:01:41.592Z,20.98
2022-12-04T12:07:37.965Z,19.35
2022-12-04T12:12:58.368Z,20.73
2022-12-04T12:18:08.734Z,21.23
2022-12-04T12:23:35.675Z,20.92
2022-12-04T12:28:59.069Z,21.92
2022-12-04T12:34:05.656Z,21.48
2022-12-04T12:39:11.301Z,20.90
2022-12-04T12:44:18.532Z,19.77
2022-12-04T12:49:39.099Z,20.85
2022-12-04T12:54:50.753Z,21.83
2022-12-04T12:59:55.584Z,20.60
2022-12-04T13:05:00.521Z,20.95
2022-12-04T13:10:11.620Z,23.67
2022-12-04T13:15:19.606Z,22.63
2022-12-04T13:20:28.037Z,24.75
2022-12-04T13:25:48.424Z,26.45
2022-12-04T13:31:05.079Z,24.95
2022-12-04T13:36:24.709Z,23.67
2022-12-04T13:41:27.713Z,24.13
2022-12-04T13:46:29.601Z,23.02
2022-12-04T13:51:39.836Z,22.60
2022-12-04T13:56:43.229Z,20.15
2022-12-04T14:01:47.089Z,20.85
2022-12-04T14:06:50.549Z,22.27
2022-12-04T14:11:57.837Z,22.67
2022-12-04T14:16:59.980Z,24.10
2022-12-04T14:22:02.405Z,24.17
2022-12-04T14:27:31.798Z,25.10
2022-12-04T14:32:35.452Z,26.90
2022-12-04T14:37:41.265Z,25.02
2022-12-04T14:42:42.957Z,24.42
2022-12-04T14:48:11.243Z,24.65
2022-12-04T14:53:19.239Z,29.10
2022-12-04T14:58:30.381Z,27.17
2022-12-04T15:03:36.067Z,26.30
2022-12-04T15:08:49.556Z,26.20
2022-12-04T15:13:51.312Z,26.85
2022-12-04T15:19:00.136Z,26.23
2022-12-04T15:24:02.299Z,27.90
2022-12-04T15:29:05.749Z,24.25
2022-12-04T15:34:13.215Z,24.88
2022-12-04T15:39:25.689Z,23.85
2022-12-04T15:44:34.936Z,26.20
2022-12-04T15:49:36.584Z,25.23
2022-12-04T15:54:48.120Z,25.75
2022-12-04T15:59:50.606Z,24.20
2022-12-04T16:04:52.308Z,22.92
2022-12-04T16:10:02.942Z,25.95
2022-12-04T16:15:05.856Z,25.45
2022-12-04T16:20:08.017Z,24.67
2022-12-04T16:25:11.813Z,25.02
2022-12-04T16:30:14.116Z,21.58
2022-12-04T16:35:17.174Z,25.27
2022-12-04T16:40:18.922Z,24.38
2022-12-04T16:45:22.815Z,23.90
2022-12-04T16:50:25.317Z,25.85
2022-12-04T16:55:32.141Z,23.77
2022-12-04T17:00:33.981Z,23.40
2022-12-04T17:05:35.916Z,20.23
2022-12-04T17:10:37.555Z,23.58
2022-12-04T17:15:39.440Z,24.90
2022-12-04T17:20:42.384Z,22.17
2022-12-04T17:25:44.005Z,19.58
2022-12-04T17:30:46.618Z,21.00
2022-12-04T17:35:48.317Z,21.17
2022-12-04T17:41:00.604Z,22.17
2022-12-04T17:46:03.054Z,22.33
2022-12-04T17:51:09.059Z,20.33
2022-12-04T17:56:19.944Z,21.00
2022-12-04T18:01:24.788Z,22.70
2022-12-04T18:06:28.827Z,20.63
2022-12-04T18:11:32.319Z,20.65
2022-12-04T18:16:35.790Z,17.92
2022-12-04T18:21:37.468Z,19.08
2022-12-04T18:26:41.050Z,19.15
2022-12-04T18:31:42.777Z,23.35
2022-12-04T18:36:45.462Z,23.02
2022-12-04T18:41:47.650Z,23.60
2022-12-04T18:46:49.531Z,24.75
2022-12-04T18:51:51.154Z,25.17
2022-12-04T18:56:52.769Z,22.63
2022-12-04T19:01:54.956Z,23.83
2022-12-04T19:06:56.814Z,23.33
2022-12-04T19:11:59.261Z,21.67
2022-12-04T19:17:00.990Z,22.17
2022-12-04T19:22:02.709Z,18.85
2022-12-04T19:27:11.035Z,12.10
2022-12-04T19:32:12.836Z,10.35
2022-12-04T19:37:14.518Z,8.95
2022-12-04T19:42:16.244Z,9.02
2022-12-04T19:47:18.838Z,10.23
2022-12-04T19:52:20.477Z,9.68
2022-12-04T19:57:22.333Z,9.65
2022-12-04T20:02:24.137Z,9.52
2022-12-04T20:07:26.046Z,9.27
2022-12-04T20:12:27.665Z,9.27
2022-12-04T20:17:29.487Z,9.10
2022-12-04T20:22:31.253Z,9.02
2022-12-04T20:27:33.745Z,11.48
2022-12-04T20:32:35.412Z,9.77
2022-12-04T20:37:37.260Z,9.82
2022-12-04T20:42:38.931Z,9.32
2022-12-04T20:47:41.517Z,9.38
2022-12-04T20:52:43.171Z,8.85
2022-12-04T20:57:44.884Z,8.38
2022-12-04T21:02:46.582Z,9.50
2022-12-04T21:07:48.482Z,13.88
2022-12-04T21:13:08.899Z,14.40
2022-12-04T21:18:10.569Z,15.13
2022-12-04T21:23:12.235Z,14.93
2022-12-04T21:28:13.873Z,13.10
2022-12-04T21:33:16.388Z,13.70
2022-12-04T21:38:18.041Z,9.77
2022-12-04T21:43:19.718Z,8.50
2022-12-04T21:48:21.353Z,8.50
2022-12-04T21:53:23.172Z,8.27
2022-12-04T21:58:25.988Z,8.20
2022-12-04T22:03:27.728Z,7.68
2022-12-04T22:08:29.579Z,7.85
2022-12-04T22:13:31.311Z,7.75
2022-12-04T22:18:33.848Z,7.15
2022-12-04T22:23:35.950Z,7.95
2022-12-04T22:28:37.931Z,6.57
2022-12-04T22:33:39.891Z,7.25
2022-12-04T22:39:05.893Z,6.55
2022-12-04T22:44:03.845Z,8.02
2022-12-04T22:49:05.505Z,7.63
2022-12-04T22:54:08.129Z,8.23
2022-12-04T22:59:09.831Z,8.20
2022-12-04T23:04:11.512Z,7.65
2022-12-04T23:09:15.452Z,8.05
2022-12-04T23:14:17.134Z,8.50
2022-12-04T23:19:19.658Z,8.70
2022-12-04T23:24:21.271Z,8.65
2022-12-04T23:29:51.627Z,8.98
2022-12-04T23:34:44.616Z,9.20
2022-12-04T23:39:46.233Z,10.02
2022-12-04T23:44:47.911Z,10.35
2022-12-04T23:49:49.539Z,9.90
2022-12-04T23:54:51.206Z,9.38
2022-12-04T23:59:53.148Z,9.57
